Time;durP1;ratioP1;P1;durP2;ratioP2;P2;SDS_P1;SDS_P2;PMS_P1;PMS_P2;Temp;Humidity;BMP_temperature;BMP_pressure;BME280_temperature;BME280_humidity;BME280_pressure;Samples;Min_cycle;Max_cycle;Signal;HPM_P1;HPM_P2
2023/04/22 00:02:22;;;;;;;9.70;7.85;;;;;;;;;;5092044;28;20405;-66
2023/04/22 00:04:49;;;;;;;11.35;7.68;;;;;;;;;;5091635;28;20437;-65
2023/04/22 00:07:17;;;;;;;10.15;8.00;;;;;;;;;;5091992;28;20105;-66
2023/04/22 00:09:44;;;;;;;10.52;7.72;;;;;;;;;;5091614;28;20047;-65
2023/04/22 00:12:11;;;;;;;10.30;7.90;;;;;;;;;;5091861;28;20427;-66
2023/04/22 00:14:37;;;;;;;11.25;7.57;;;;;;;;;;5091128;28;20052;-66
2023/04/22 00:17:05;;;;;;;8.02;6.80;;;;;;;;;;5091148;28;20044;-65
2023/04/22 00:19:32;;;;;;;12.63;9.13;;;;;;;;;;5091117;28;20129;-66
2023/04/22 00:21:58;;;;;;;10.45;7.63;;;;;;;;;;5091588;28;20129;-66
2023/04/22 00:24:30;;;;;;;9.98;7.57;;;;;;;;;;5091553;28;20044;-65
2023/04/22 00:26:56;;;;;;;10.95;7.50;;;;;;;;;;5091412;28;20044;-65
2023/04/22 00:29:23;;;;;;;10.98;7.60;;;;;;;;;;5091925;28;20051;-66
2023/04/22 00:31:52;;;;;;;12.63;7.72;;;;;;;;;;5091544;28;20044;-66
2023/04/22 00:34:19;;;;;;;10.68;7.75;;;;;;;;;;5091170;28;20040;-65
2023/04/22 00:36:46;;;;;;;12.27;7.75;;;;;;;;;;5091279;28;20109;-65
2023/04/22 00:39:15;;;;;;;8.73;6.28;;;;;;;;;;5091184;28;20040;-65
2023/04/22 00:41:43;;;;;;;9.98;7.43;;;;;;;;;;5091355;28;20044;-66
2023/04/22 00:44:10;;;;;;;9.57;7.10;;;;;;;;;;5091610;28;20635;-66
2023/04/22 00:46:38;;;;;;;9.73;6.93;;;;;;;;;;5053427;28;1087449;-66
2023/04/22 00:49:05;;;;;;;9.07;6.68;;;;;;;;;;5092368;28;20048;-65
2023/04/22 00:51:31;;;;;;;9.75;7.57;;;;;;;;;;5092597;28;20066;-66
2023/04/22 00:54:00;;;;;;;11.05;7.60;;;;;;;;;;5092271;28;20043;-65
2023/04/22 00:56:28;;;;;;;15.43;9.50;;;;;;;;;;5092519;28;20048;-66
2023/04/22 00:58:56;;;;;;;18.40;9.80;;;;;;;;;;5092413;28;20044;-66
2023/04/22 01:01:23;;;;;;;15.77;9.98;;;;;;;;;;5092623;28;20489;-65
2023/04/22 01:03:51;;;;;;;15.65;9.55;;;;;;;;;;5092173;28;20052;-66
2023/04/22 01:06:19;;;;;;;15.57;10.40;;;;;;;;;;5092063;28;20079;-66
2023/04/22 01:08:46;;;;;;;13.30;8.90;;;;;;;;;;5092339;28;20051;-66
2023/04/22 01:11:13;;;;;;;13.07;8.82;;;;;;;;;;5092477;28;20048;-65
2023/04/22 01:13:40;;;;;;;14.80;9.55;;;;;;;;;;5092407;28;20405;-65
2023/04/22 01:16:09;;;;;;;12.85;8.77;;;;;;;;;;5094253;28;20046;-66
2023/04/22 01:18:36;;;;;;;15.48;9.55;;;;;;;;;;5096130;28;20040;-66
2023/04/22 01:21:03;;;;;;;14.15;9.60;;;;;;;;;;5095932;28;20136;-66
2023/04/22 01:23:31;;;;;;;13.32;9.20;;;;;;;;;;5096098;28;20067;-65
2023/04/22 01:25:58;;;;;;;17.33;9.77;;;;;;;;;;5095950;28;20071;-65
2023/04/22 01:28:25;;;;;;;15.32;9.20;;;;;;;;;;5096208;28;20059;-65
2023/04/22 01:30:52;;;;;;;14.90;9.52;;;;;;;;;;5095654;28;20040;-65
2023/04/22 01:33:19;;;;;;;15.05;9.90;;;;;;;;;;5096427;28;20155;-66
2023/04/22 01:35:46;;;;;;;19.80;10.82;;;;;;;;;;5095224;28;20047;-65
2023/04/22 01:38:12;;;;;;;16.88;10.23;;;;;;;;;;5096048;28;20044;-65
2023/04/22 01:40:40;;;;;;;15.15;9.32;;;;;;;;;;5095172;28;20059;-66
2023/04/22 01:43:07;;;;;;;16.13;9.23;;;;;;;;;;5096062;28;20394;-66
2023/04/22 01:45:34;;;;;;;13.07;8.57;;;;;;;;;;5095274;28;20040;-65
2023/04/22 01:48:00;;;;;;;13.05;8.73;;;;;;;;;;5095656;28;20048;-65
2023/04/22 01:50:27;;;;;;;13.65;8.25;;;;;;;;;;5087412;28;20067;-65
2023/04/22 01:52:53;;;;;;;13.48;8.45;;;;;;;;;;5077985;28;20048;-66
2023/04/22 01:55:20;;;;;;;13.18;7.93;;;;;;;;;;5095189;28;20043;-65
2023/04/22 01:57:48;;;;;;;14.55;8.13;;;;;;;;;;5094943;28;20044;-65
2023/04/22 02:00:15;;;;;;;13.40;8.63;;;;;;;;;;5096333;28;20048;-65
2023/04/22 02:02:41;;;;;;;12.70;8.52;;;;;;;;;;5095228;28;20055;-65
2023/04/22 02:05:09;;;;;;;13.55;8.95;;;;;;;;;;5095428;28;20044;-65
2023/04/22 02:07:36;;;;;;;13.48;8.75;;;;;;;;;;5095524;28;20048;-66
2023/04/22 02:10:03;;;;;;;14.82;9.05;;;;;;;;;;5095680;28;20443;-66
2023/04/22 02:12:30;;;;;;;15.50;9.52;;;;;;;;;;5094910;28;20298;-65
2023/04/22 02:14:58;;;;;;;13.23;8.73;;;;;;;;;;5094659;28;20048;-65
2023/04/22 02:17:24;;;;;;;14.70;8.77;;;;;;;;;;5094791;28;20072;-65
2023/04/22 02:19:51;;;;;;;17.75;9.40;;;;;;;;;;5093673;28;20048;-66
2023/04/22 02:22:17;;;;;;;13.38;7.50;;;;;;;;;;5074241;28;20048;-65
2023/04/22 02:24:44;;;;;;;12.85;7.53;;;;;;;;;;5073747;28;20055;-66
2023/04/22 02:27:11;;;;;;;12.88;7.68;;;;;;;;;;5072542;28;20063;-65
2023/04/22 02:29:37;;;;;;;11.48;7.15;;;;;;;;;;5073560;28;20044;-65
2023/04/22 02:32:05;;;;;;;13.25;7.50;;;;;;;;;;5074218;28;20045;-64
2023/04/22 02:34:32;;;;;;;14.57;7.63;;;;;;;;;;5073723;28;20104;-65
2023/04/22 02:36:58;;;;;;;12.18;7.68;;;;;;;;;;5073068;28;20041;-65
2023/04/22 02:39:25;;;;;;;12.30;7.47;;;;;;;;;;5073586;28;20048;-64
2023/04/22 02:41:52;;;;;;;12.23;7.13;;;;;;;;;;5072618;28;20468;-65
2023/04/22 02:44:18;;;;;;;13.45;7.35;;;;;;;;;;5073225;28;20106;-66
2023/04/22 02:46:45;;;;;;;13.80;9.70;;;;;;;;;;5072254;28;20051;-65
2023/04/22 02:49:13;;;;;;;14.45;8.05;;;;;;;;;;5072695;28;20051;-65
2023/04/22 02:51:39;;;;;;;19.83;9.77;;;;;;;;;;5071948;28;20051;-64
2023/04/22 02:54:06;;;;;;;18.65;9.60;;;;;;;;;;5073047;28;20061;-66
2023/04/22 02:56:32;;;;;;;17.80;9.98;;;;;;;;;;5073603;28;20048;-65
2023/04/22 02:58:59;;;;;;;20.92;11.18;;;;;;;;;;5073626;28;20048;-66
2023/04/22 03:01:25;;;;;;;19.52;9.80;;;;;;;;;;5073532;28;20044;-65
2023/04/22 03:03:52;;;;;;;20.75;10.23;;;;;;;;;;5072702;28;20048;-66
2023/04/22 03:06:20;;;;;;;25.90;12.85;;;;;;;;;;5074131;28;20044;-66
2023/04/22 03:08:47;;;;;;;21.55;10.75;;;;;;;;;;5074023;28;20539;-65
2023/04/22 03:11:13;;;;;;;20.65;10.35;;;;;;;;;;5073952;28;20045;-66
2023/04/22 03:13:40;;;;;;;21.27;9.88;;;;;;;;;;5073426;28;20064;-65
2023/04/22 03:16:07;;;;;;;19.40;9.55;;;;;;;;;;5074161;28;20051;-65
2023/04/22 03:18:33;;;;;;;22.20;9.48;;;;;;;;;;5073772;28;20040;-66
2023/04/22 03:21:00;;;;;;;17.90;9.77;;;;;;;;;;5072928;28;20056;-65
2023/04/22 03:23:28;;;;;;;19.85;9.57;;;;;;;;;;5073743;28;20045;-65
2023/04/22 03:25:54;;;;;;;20.70;9.38;;;;;;;;;;5073058;28;20506;-65
2023/04/22 03:28:21;;;;;;;19.48;8.60;;;;;;;;;;5073508;28;20478;-66
2023/04/22 03:30:47;;;;;;;16.10;7.82;;;;;;;;;;5073334;28;20045;-65
2023/04/22 03:33:14;;;;;;;16.83;8.88;;;;;;;;;;5073510;28;20072;-64
2023/04/22 03:35:41;;;;;;;17.42;9.27;;;;;;;;;;5072951;28;20076;-66
2023/04/22 03:38:07;;;;;;;13.45;8.27;;;;;;;;;;5072980;28;20052;-65
2023/04/22 03:40:35;;;;;;;16.92;8.48;;;;;;;;;;5073534;28;20052;-65
2023/04/22 03:43:02;;;;;;;12.65;7.72;;;;;;;;;;5073357;28;20135;-66
2023/04/22 03:45:29;;;;;;;13.25;7.70;;;;;;;;;;5072890;28;20048;-64
2023/04/22 03:47:55;;;;;;;12.75;7.28;;;;;;;;;;5072597;28;20045;-66
2023/04/22 03:50:22;;;;;;;12.23;7.80;;;;;;;;;;5073754;28;20040;-66
2023/04/22 03:52:48;;;;;;;13.85;7.43;;;;;;;;;;5072892;28;20050;-66
2023/04/22 03:55:15;;;;;;;12.65;7.45;;;;;;;;;;5073144;28;20056;-65
2023/04/22 03:57:43;;;;;;;13.68;8.20;;;;;;;;;;5072353;28;20055;-66
2023/04/22 04:00:10;;;;;;;15.45;7.63;;;;;;;;;;5072688;28;20052;-65
2023/04/22 04:02:37;;;;;;;15.20;7.05;;;;;;;;;;5072774;28;20079;-65
2023/04/22 04:05:05;;;;;;;16.85;7.97;;;;;;;;;;5072114;28;20084;-65
2023/04/22 04:07:34;;;;;;;20.73;7.90;;;;;;;;;;5072708;28;20086;-66
2023/04/22 04:10:01;;;;;;;18.35;7.50;;;;;;;;;;5072897;28;20050;-66
2023/04/22 04:12:27;;;;;;;18.60;8.07;;;;;;;;;;5073326;28;20044;-66
2023/04/22 04:14:56;;;;;;;14.93;7.50;;;;;;;;;;5072703;28;20055;-65
2023/04/22 04:17:24;;;;;;;19.55;7.57;;;;;;;;;;5073383;28;20140;-65
2023/04/22 04:19:51;;;;;;;18.27;8.20;;;;;;;;;;5072393;28;20083;-66
2023/04/22 04:22:19;;;;;;;17.58;8.30;;;;;;;;;;5072888;28;20055;-66
2023/04/22 04:24:46;;;;;;;15.63;8.48;;;;;;;;;;5073069;28;20400;-65
2023/04/22 04:27:13;;;;;;;14.70;7.85;;;;;;;;;;5073063;28;20517;-65
2023/04/22 04:29:40;;;;;;;16.00;7.80;;;;;;;;;;5073332;28;20075;-66
2023/04/22 04:32:11;;;;;;;14.20;7.88;;;;;;;;;;5072990;28;20094;-66
2023/04/22 04:34:38;;;;;;;16.00;8.45;;;;;;;;;;5072933;28;20049;-65
2023/04/22 04:37:05;;;;;;;15.60;7.90;;;;;;;;;;5072296;28;20051;-65
2023/04/22 04:39:35;;;;;;;16.33;7.50;;;;;;;;;;5073260;28;20102;-66
2023/04/22 04:42:02;;;;;;;13.18;7.57;;;;;;;;;;5086133;28;20080;-65
2023/04/22 04:44:30;;;;;;;14.82;7.68;;;;;;;;;;5093110;28;20058;-66
2023/04/22 04:46:57;;;;;;;13.05;7.53;;;;;;;;;;5098633;22;20041;-70
2023/04/22 04:49:29;;;;;;;13.77;8.05;;;;;;;;;;5070002;28;20417;-70
2023/04/22 04:51:56;;;;;;;14.32;8.40;;;;;;;;;;5069578;28;20055;-70
2023/04/22 04:54:22;;;;;;;16.55;8.35;;;;;;;;;;5073095;28;20040;-70
2023/04/22 04:56:49;;;;;;;22.08;8.68;;;;;;;;;;5073821;28;20045;-69
2023/04/22 04:59:16;;;;;;;17.60;8.65;;;;;;;;;;5073377;28;20051;-70
2023/04/22 05:01:42;;;;;;;18.63;8.77;;;;;;;;;;5073945;28;20045;-70
2023/04/22 05:04:09;;;;;;;19.95;9.43;;;;;;;;;;5073698;28;20508;-69
2023/04/22 05:06:37;;;;;;;20.70;9.70;;;;;;;;;;5073456;28;20493;-70
2023/04/22 05:09:04;;;;;;;21.27;9.68;;;;;;;;;;5073049;28;20048;-70
2023/04/22 05:11:30;;;;;;;20.70;9.73;;;;;;;;;;5073417;28;20052;-69
2023/04/22 05:13:57;;;;;;;25.13;9.95;;;;;;;;;;5073306;28;20060;-69
2023/04/22 05:16:23;;;;;;;17.77;9.57;;;;;;;;;;5072942;28;20082;-69
2023/04/22 05:18:50;;;;;;;24.40;9.43;;;;;;;;;;5073139;28;20048;-69
2023/04/22 05:21:16;;;;;;;20.88;9.15;;;;;;;;;;5071782;28;20490;-70
2023/04/22 05:23:44;;;;;;;15.50;8.57;;;;;;;;;;5073251;28;20405;-69
2023/04/22 05:26:11;;;;;;;19.52;9.88;;;;;;;;;;5073046;28;20048;-70
2023/04/22 05:28:38;;;;;;;18.17;9.60;;;;;;;;;;5073152;28;20287;-70
2023/04/22 05:31:05;;;;;;;16.85;8.85;;;;;;;;;;5072632;28;20051;-70
2023/04/22 05:33:32;;;;;;;15.48;8.25;;;;;;;;;;5073056;28;20056;-70
2023/04/22 05:35:58;;;;;;;17.55;9.10;;;;;;;;;;5072325;28;20045;-70
2023/04/22 05:38:25;;;;;;;18.33;9.20;;;;;;;;;;5073008;28;20067;-70
2023/04/22 05:40:53;;;;;;;14.82;8.65;;;;;;;;;;5073035;28;20067;-70
2023/04/22 05:43:20;;;;;;;14.20;8.95;;;;;;;;;;5072562;28;20041;-69
2023/04/22 05:45:46;;;;;;;18.98;9.13;;;;;;;;;;5073322;28;20048;-70
2023/04/22 05:48:13;;;;;;;16.77;8.82;;;;;;;;;;5072412;28;20051;-70
2023/04/22 05:50:39;;;;;;;19.90;10.15;;;;;;;;;;5067403;28;20402;-70
2023/04/22 05:53:06;;;;;;;21.63;10.80;;;;;;;;;;5052376;28;20068;-70
2023/04/22 05:55:32;;;;;;;21.60;10.20;;;;;;;;;;5052582;28;20505;-70
2023/04/22 05:58:00;;;;;;;21.52;10.82;;;;;;;;;;5052072;28;20435;-70
2023/04/22 06:00:27;;;;;;;19.08;10.70;;;;;;;;;;5052664;28;20049;-70
2023/04/22 06:02:54;;;;;;;22.58;10.15;;;;;;;;;;5051919;28;20080;-70
2023/04/22 06:05:20;;;;;;;18.15;10.48;;;;;;;;;;5052228;28;20056;-68
2023/04/22 06:07:47;;;;;;;18.95;10.43;;;;;;;;;;5052352;28;20391;-68
2023/04/22 06:10:13;;;;;;;20.77;11.07;;;;;;;;;;5052098;28;20052;-69
2023/04/22 06:12:40;;;;;;;22.92;11.18;;;;;;;;;;5052750;28;20051;-68
2023/04/22 06:15:10;;;;;;;23.20;11.65;;;;;;;;;;5051924;28;20052;-67
2023/04/22 06:17:38;;;;;;;21.45;10.32;;;;;;;;;;5052517;28;20053;-68
2023/04/22 06:20:05;;;;;;;17.83;9.82;;;;;;;;;;5052313;28;20116;-68
2023/04/22 06:22:32;;;;;;;18.42;8.98;;;;;;;;;;5051709;28;20048;-69
2023/04/22 06:24:58;;;;;;;15.48;9.18;;;;;;;;;;5051771;28;20049;-68
2023/04/22 06:27:25;;;;;;;14.65;8.05;;;;;;;;;;5052442;28;20044;-68
2023/04/22 06:29:51;;;;;;;17.15;9.00;;;;;;;;;;5051958;28;20472;-69
2023/04/22 06:32:19;;;;;;;16.65;9.27;;;;;;;;;;5051663;28;20410;-68
2023/04/22 06:34:46;;;;;;;17.40;8.90;;;;;;;;;;5052088;28;20407;-68
2023/04/22 06:37:13;;;;;;;15.85;9.38;;;;;;;;;;5051281;28;20045;-68
2023/04/22 06:39:39;;;;;;;13.27;8.43;;;;;;;;;;5051936;28;20136;-68
2023/04/22 06:42:06;;;;;;;13.10;7.95;;;;;;;;;;5051718;28;20053;-69
2023/04/22 06:44:32;;;;;;;14.55;7.90;;;;;;;;;;5051787;28;20525;-69
2023/04/22 06:46:59;;;;;;;13.07;7.43;;;;;;;;;;5050952;28;20723;-68
2023/04/22 06:49:27;;;;;;;11.07;7.78;;;;;;;;;;5052135;28;20045;-68
2023/04/22 06:51:53;;;;;;;12.77;7.68;;;;;;;;;;5068430;28;20060;-69
2023/04/22 06:54:20;;;;;;;11.15;7.15;;;;;;;;;;5071520;28;20040;-68
2023/04/22 06:56:47;;;;;;;10.27;7.40;;;;;;;;;;5071508;28;20045;-68
2023/04/22 06:59:14;;;;;;;9.57;6.78;;;;;;;;;;5070838;28;20135;-69
2023/04/22 07:01:40;;;;;;;9.40;6.78;;;;;;;;;;5071782;28;20341;-69
2023/04/22 07:04:07;;;;;;;9.95;7.25;;;;;;;;;;5071196;28;20048;-69
2023/04/22 07:06:35;;;;;;;10.75;6.80;;;;;;;;;;5071361;28;20059;-68
2023/04/22 07:09:01;;;;;;;8.93;6.40;;;;;;;;;;5070721;28;20136;-68
2023/04/22 07:11:30;;;;;;;9.80;6.10;;;;;;;;;;5071624;28;20044;-68
2023/04/22 07:13:56;;;;;;;8.50;5.75;;;;;;;;;;5069843;28;20055;-68
2023/04/22 07:16:23;;;;;;;7.35;5.47;;;;;;;;;;5071087;28;20059;-68
2023/04/22 07:18:49;;;;;;;7.20;5.75;;;;;;;;;;5070392;28;20421;-69
2023/04/22 07:21:16;;;;;;;11.02;5.78;;;;;;;;;;5070021;28;20048;-69
2023/04/22 07:23:44;;;;;;;6.10;5.15;;;;;;;;;;5071092;28;20067;-69
2023/04/22 07:26:10;;;;;;;5.85;4.50;;;;;;;;;;5070833;28;20052;-68
2023/04/22 07:28:37;;;;;;;4.35;3.60;;;;;;;;;;5070539;28;20342;-68
2023/04/22 07:31:04;;;;;;;4.22;3.47;;;;;;;;;;5070976;28;20409;-68
2023/04/22 07:33:30;;;;;;;3.13;2.83;;;;;;;;;;5071414;28;20511;-69
2023/04/22 07:35:57;;;;;;;7.10;2.88;;;;;;;;;;5070769;28;20041;-69
2023/04/22 07:38:24;;;;;;;3.58;2.60;;;;;;;;;;5070564;28;20413;-69
2023/04/22 07:40:52;;;;;;;2.50;2.30;;;;;;;;;;5070136;28;20067;-68
2023/04/22 07:43:19;;;;;;;5.28;3.08;;;;;;;;;;5070490;28;20048;-68
2023/04/22 07:45:45;;;;;;;4.57;3.00;;;;;;;;;;5070549;28;20140;-70
2023/04/22 07:48:12;;;;;;;14.13;3.45;;;;;;;;;;5070192;28;20041;-69
2023/04/22 07:50:39;;;;;;;18.73;4.15;;;;;;;;;;5069195;28;20055;-69
2023/04/22 07:53:06;;;;;;;3.08;2.35;;;;;;;;;;5070129;28;20315;-69
2023/04/22 07:55:32;;;;;;;7.97;2.97;;;;;;;;;;5069981;28;20513;-69
2023/04/22 07:58:05;;;;;;;3.50;2.60;;;;;;;;;;5069935;28;20049;-69
2023/04/22 08:00:31;;;;;;;5.18;2.88;;;;;;;;;;5070996;28;20049;-69
2023/04/22 08:02:58;;;;;;;3.92;2.35;;;;;;;;;;5069931;28;20044;-69
2023/04/22 08:05:24;;;;;;;4.63;2.33;;;;;;;;;;5070514;28;20044;-69
2023/04/22 08:07:51;;;;;;;3.70;2.50;;;;;;;;;;5070367;28;20514;-69
2023/04/22 08:10:18;;;;;;;6.57;2.80;;;;;;;;;;5070074;28;20052;-69
2023/04/22 08:12:45;;;;;;;3.92;2.50;;;;;;;;;;5070231;28;20494;-69
2023/04/22 08:15:13;;;;;;;3.45;2.53;;;;;;;;;;5069941;28;20044;-69
2023/04/22 08:17:39;;;;;;;4.25;2.50;;;;;;;;;;5069797;28;20049;-69
2023/04/22 08:20:07;;;;;;;3.20;2.53;;;;;;;;;;5069272;28;20041;-69
2023/04/22 08:22:34;;;;;;;3.28;2.45;;;;;;;;;;5070017;28;20059;-69
2023/04/22 08:25:00;;;;;;;3.08;1.90;;;;;;;;;;5069468;28;20063;-69
2023/04/22 08:27:27;;;;;;;2.35;1.90;;;;;;;;;;5069870;28;20064;-69
2023/04/22 08:29:54;;;;;;;2.78;2.00;;;;;;;;;;5069635;28;20127;-69
2023/04/22 08:32:25;;;;;;;2.13;1.85;;;;;;;;;;5070046;28;20074;-68
2023/04/22 08:34:51;;;;;;;1.77;1.67;;;;;;;;;;5069391;28;20457;-69
2023/04/22 08:37:18;;;;;;;4.60;2.13;;;;;;;;;;5069479;28;20048;-69
2023/04/22 08:39:44;;;;;;;2.50;2.00;;;;;;;;;;5070306;28;20051;-69
2023/04/22 08:42:12;;;;;;;3.22;1.80;;;;;;;;;;5069913;28;20049;-69
2023/04/22 08:44:39;;;;;;;3.90;1.70;;;;;;;;;;5069986;28;20051;-69
2023/04/22 08:47:06;;;;;;;2.67;1.98;;;;;;;;;;5068906;28;20055;-69
2023/04/22 08:49:34;;;;;;;2.70;1.75;;;;;;;;;;5069766;28;20048;-72
2023/04/22 08:52:01;;;;;;;1.70;1.60;;;;;;;;;;5069235;28;20053;-72
2023/04/22 08:54:28;;;;;;;1.85;1.52;;;;;;;;;;5069933;28;20040;-71
2023/04/22 08:56:55;;;;;;;4.60;1.60;;;;;;;;;;5069002;28;20071;-72
2023/04/22 08:59:23;;;;;;;134.98;15.27;;;;;;;;;;5069938;28;20050;-72
2023/04/22 09:01:52;;;;;;;3.05;1.50;;;;;;;;;;5069398;28;20052;-72
2023/04/22 09:04:19;;;;;;;3.53;1.90;;;;;;;;;;5069409;28;20067;-72
2023/04/22 09:06:47;;;;;;;1.80;1.58;;;;;;;;;;5069542;28;20055;-71
2023/04/22 09:09:14;;;;;;;3.55;2.08;;;;;;;;;;5068785;28;20051;-72
2023/04/22 09:11:41;;;;;;;3.03;1.73;;;;;;;;;;5069799;28;20048;-72
2023/04/22 09:14:07;;;;;;;2.30;1.60;;;;;;;;;;5069090;28;20071;-72
2023/04/22 09:16:40;;;;;;;2.45;1.45;;;;;;;;;;5069317;28;20041;-72
2023/04/22 09:19:11;;;;;;;2.00;1.70;;;;;;;;;;5069156;28;20045;-70
2023/04/22 09:21:39;;;;;;;3.00;1.70;;;;;;;;;;5069619;28;20156;-70
2023/04/22 09:24:10;;;;;;;4.95;2.58;;;;;;;;;;5069076;28;20044;-71
2023/04/22 09:26:39;;;;;;;2.95;1.60;;;;;;;;;;5069918;28;20101;-70
2023/04/22 09:29:08;;;;;;;2.10;1.60;;;;;;;;;;5068820;28;20472;-71
2023/04/22 09:31:36;;;;;;;5.25;1.73;;;;;;;;;;5069173;28;20139;-70
2023/04/22 09:34:04;;;;;;;2.05;1.85;;;;;;;;;;5069107;28;20483;-71
2023/04/22 09:36:32;;;;;;;2.45;1.50;;;;;;;;;;5070284;28;20101;-71
2023/04/22 09:39:02;;;;;;;2.75;1.70;;;;;;;;;;5072924;28;20719;-71
2023/04/22 09:41:32;;;;;;;2.10;1.40;;;;;;;;;;5072798;28;20166;-70
2023/04/22 09:44:00;;;;;;;1.60;1.50;;;;;;;;;;5072919;28;20052;-71
2023/04/22 09:46:28;;;;;;;1.77;1.50;;;;;;;;;;5072836;28;20048;-70
2023/04/22 09:48:56;;;;;;;3.53;1.95;;;;;;;;;;5072859;28;20048;-71
2023/04/22 09:51:23;;;;;;;5.13;1.70;;;;;;;;;;5072427;28;20050;-71
2023/04/22 09:54:00;;;;;;;2.50;1.30;;;;;;;;;;5072864;28;20051;-70
2023/04/22 09:56:47;;;;;;;3.20;1.70;;;;;;;;;;5072039;28;20056;-70
2023/04/22 09:59:14;;;;;;;4.78;1.80;;;;;;;;;;5072577;28;20136;-71
2023/04/22 10:01:42;;;;;;;2.08;1.70;;;;;;;;;;5072373;28;20559;-71
2023/04/22 10:04:09;;;;;;;3.17;2.10;;;;;;;;;;5072432;28;20048;-71
2023/04/22 10:06:36;;;;;;;6.82;1.90;;;;;;;;;;5071905;28;20510;-71
2023/04/22 10:09:04;;;;;;;3.15;1.70;;;;;;;;;;5072016;28;20041;-71
2023/04/22 10:11:31;;;;;;;2.03;1.50;;;;;;;;;;5072752;28;20416;-71
2023/04/22 10:13:59;;;;;;;4.35;2.25;;;;;;;;;;5071960;28;20049;-70
2023/04/22 10:16:28;;;;;;;2.28;1.70;;;;;;;;;;5072303;28;20454;-71
2023/04/22 10:18:56;;;;;;;2.35;1.80;;;;;;;;;;5072087;28;20049;-71
2023/04/22 10:21:25;;;;;;;2.20;1.85;;;;;;;;;;5072106;28;20048;-71
2023/04/22 10:23:52;;;;;;;3.15;1.80;;;;;;;;;;5071878;28;20440;-71
2023/04/22 10:26:38;;;;;;;2.80;1.45;;;;;;;;;;5072351;28;20051;-71
2023/04/22 10:29:08;;;;;;;2.17;1.48;;;;;;;;;;5071581;28;20131;-71
2023/04/22 10:31:37;;;;;;;3.78;1.58;;;;;;;;;;5072138;28;20052;-70
2023/04/22 10:34:13;;;;;;;3.28;2.10;;;;;;;;;;5071358;28;20486;-71
2023/04/22 10:36:57;;;;;;;3.45;1.67;;;;;;;;;;5071931;28;20054;-70
2023/04/22 10:39:25;;;;;;;4.28;1.67;;;;;;;;;;5069964;28;20051;-71
2023/04/22 10:41:55;;;;;;;3.80;1.60;;;;;;;;;;5071933;28;20094;-71
2023/04/22 10:44:23;;;;;;;2.20;1.60;;;;;;;;;;5071244;28;20074;-71
2023/04/22 10:46:59;;;;;;;2.10;1.90;;;;;;;;;;5084131;22;20959;-65
2023/04/22 10:49:28;;;;;;;4.55;2.10;;;;;;;;;;5071861;28;20040;-65
2023/04/22 10:51:57;;;;;;;5.15;1.55;;;;;;;;;;5072128;28;20549;-65
2023/04/22 10:55:00;;;;;;;3.03;1.88;;;;;;;;;;5072208;28;20056;-67
2023/04/22 10:57:38;;;;;;;2.88;1.83;;;;;;;;;;5019796;28;20573;-65
2023/04/22 11:00:27;;;;;;;7.93;2.60;;;;;;;;;;5052336;28;20283;-65
2023/04/22 11:03:06;;;;;;;3.28;1.60;;;;;;;;;;5052337;28;20091;-65
2023/04/22 11:05:34;;;;;;;2.30;1.90;;;;;;;;;;5051618;28;20124;-65
2023/04/22 11:08:03;;;;;;;2.17;1.63;;;;;;;;;;5051701;28;20084;-65
2023/04/22 11:10:40;;;;;;;4.45;1.63;;;;;;;;;;5051867;28;20049;-65
2023/04/22 11:13:09;;;;;;;3.85;1.70;;;;;;;;;;5051979;28;20475;-65
2023/04/22 11:15:39;;;;;;;3.92;1.90;;;;;;;;;;5051615;28;20049;-66
2023/04/22 11:18:17;;;;;;;2.45;1.50;;;;;;;;;;5051832;28;20049;-65
2023/04/22 11:20:43;;;;;;;1.27;1.17;;;;;;;;;;5052294;28;20049;-65
2023/04/22 11:23:10;;;;;;;2.83;1.58;;;;;;;;;;5051482;28;20056;-66
2023/04/22 11:25:37;;;;;;;1.92;1.30;;;;;;;;;;5051583;28;20045;-66
2023/04/22 11:28:04;;;;;;;2.22;1.50;;;;;;;;;;5051476;28;20395;-65
2023/04/22 11:30:31;;;;;;;1.88;1.60;;;;;;;;;;5051969;28;20080;-66
2023/04/22 11:33:00;;;;;;;1.95;1.58;;;;;;;;;;5051421;28;20159;-65
2023/04/22 11:35:29;;;;;;;2.03;1.40;;;;;;;;;;5051206;28;20486;-65
2023/04/22 11:37:58;;;;;;;3.08;1.55;;;;;;;;;;5051987;28;20045;-65
2023/04/22 11:40:29;;;;;;;1.50;1.40;;;;;;;;;;5051244;28;20048;-65
2023/04/22 11:42:56;;;;;;;2.10;1.30;;;;;;;;;;5051585;28;20045;-65
2023/04/22 11:45:23;;;;;;;4.50;1.50;;;;;;;;;;5051226;28;20052;-65
2023/04/22 11:47:50;;;;;;;3.00;1.60;;;;;;;;;;5051073;28;20049;-66
2023/04/22 11:50:22;;;;;;;1.75;1.42;;;;;;;;;;5051046;28;20403;-65
2023/04/22 11:52:50;;;;;;;2.05;1.25;;;;;;;;;;5051386;28;20118;-65
2023/04/22 11:55:20;;;;;;;2.35;1.30;;;;;;;;;;5051572;28;20056;-65
2023/04/22 11:57:52;;;;;;;1.58;1.30;;;;;;;;;;5051118;28;20049;-65
2023/04/22 12:00:19;;;;;;;1.30;1.20;;;;;;;;;;5050777;28;20343;-66
2023/04/22 12:02:55;;;;;;;1.67;1.05;;;;;;;;;;5050800;28;20129;-65
2023/04/22 12:05:32;;;;;;;2.47;1.67;;;;;;;;;;5050688;28;20095;-65
2023/04/22 12:08:00;;;;;;;3.08;1.75;;;;;;;;;;5050769;28;20053;-65
2023/04/22 12:10:27;;;;;;;1.42;1.23;;;;;;;;;;5050597;28;20045;-65
2023/04/22 12:12:54;;;;;;;1.73;1.30;;;;;;;;;;5050851;28;20418;-66
2023/04/22 12:15:21;;;;;;;1.92;1.52;;;;;;;;;;5050626;28;20041;-66
2023/04/22 12:17:50;;;;;;;2.30;1.40;;;;;;;;;;5050623;28;20496;-65
2023/04/22 12:20:20;;;;;;;2.13;1.20;;;;;;;;;;5049944;28;20041;-64
2023/04/22 12:22:48;;;;;;;4.20;1.20;;;;;;;;;;5050544;28;20045;-65
2023/04/22 12:25:17;;;;;;;3.08;1.40;;;;;;;;;;5051318;28;20122;-66
2023/04/22 12:27:44;;;;;;;3.83;1.70;;;;;;;;;;5050478;28;20509;-65
2023/04/22 12:30:11;;;;;;;1.38;1.27;;;;;;;;;;5050476;28;20052;-66
2023/04/22 12:32:38;;;;;;;1.85;1.50;;;;;;;;;;5050585;28;20112;-66
2023/04/22 12:35:07;;;;;;;3.83;1.80;;;;;;;;;;5050856;28;20049;-66
2023/04/22 12:37:35;;;;;;;2.97;1.33;;;;;;;;;;5050621;28;20585;-66
2023/04/22 12:40:05;;;;;;;1.70;1.48;;;;;;;;;;5050788;28;20052;-66
2023/04/22 12:42:32;;;;;;;1.95;1.58;;;;;;;;;;5050443;28;20048;-66
2023/04/22 12:44:58;;;;;;;1.90;1.20;;;;;;;;;;5050295;28;20071;-66
2023/04/22 12:47:25;;;;;;;3.45;1.30;;;;;;;;;;5050732;28;20049;-66
2023/04/22 12:49:52;;;;;;;2.22;1.33;;;;;;;;;;5048301;28;20059;-66
2023/04/22 12:52:18;;;;;;;2.15;1.42;;;;;;;;;;5050090;28;20052;-66
2023/04/22 12:54:45;;;;;;;2.63;1.27;;;;;;;;;;5050443;28;20572;-65
2023/04/22 12:57:13;;;;;;;1.30;1.20;;;;;;;;;;5050626;28;20410;-65
2023/04/22 12:59:43;;;;;;;2.10;1.48;;;;;;;;;;5050920;28;20051;-66
2023/04/22 13:02:10;;;;;;;3.72;1.63;;;;;;;;;;5051084;28;20045;-66
2023/04/22 13:04:36;;;;;;;1.52;1.30;;;;;;;;;;5050130;28;20056;-66
2023/04/22 13:07:04;;;;;;;2.15;1.50;;;;;;;;;;5050014;28;20076;-66
2023/04/22 13:09:31;;;;;;;2.42;1.50;;;;;;;;;;5050377;28;20494;-66
2023/04/22 13:11:58;;;;;;;2.00;1.30;;;;;;;;;;5051878;28;20045;-65
2023/04/22 13:14:29;;;;;;;2.03;1.10;;;;;;;;;;5054132;28;20052;-66
2023/04/22 13:16:56;;;;;;;2.53;1.23;;;;;;;;;;5053853;28;20406;-66
2023/04/22 13:19:25;;;;;;;2.65;1.20;;;;;;;;;;5053838;28;20053;-66
2023/04/22 13:21:52;;;;;;;2.15;1.30;;;;;;;;;;5051704;28;20056;-66
2023/04/22 13:24:19;;;;;;;3.75;1.50;;;;;;;;;;5054071;28;20049;-66
2023/04/22 13:26:47;;;;;;;2.25;1.30;;;;;;;;;;5053789;28;20049;-66
2023/04/22 13:29:14;;;;;;;2.83;1.50;;;;;;;;;;5054069;28;20088;-66
2023/04/22 13:31:45;;;;;;;2.20;1.20;;;;;;;;;;5054140;28;20136;-66
2023/04/22 13:34:11;;;;;;;2.40;1.38;;;;;;;;;;5055564;28;20626;-66
2023/04/22 13:36:41;;;;;;;3.10;1.60;;;;;;;;;;5055583;28;20049;-66
2023/04/22 13:39:07;;;;;;;2.67;1.30;;;;;;;;;;5055128;28;20053;-66
2023/04/22 13:41:34;;;;;;;1.40;1.30;;;;;;;;;;5055479;28;20114;-66
2023/04/22 13:44:03;;;;;;;1.98;1.77;;;;;;;;;;5055205;28;20044;-66
2023/04/22 13:46:30;;;;;;;2.25;1.50;;;;;;;;;;5055519;28;20072;-67
2023/04/22 13:48:57;;;;;;;2.00;1.20;;;;;;;;;;5054039;28;20108;-66
2023/04/22 13:51:24;;;;;;;1.48;1.20;;;;;;;;;;5040098;28;20052;-66
2023/04/22 13:53:51;;;;;;;2.80;1.75;;;;;;;;;;5035397;28;20466;-66
2023/04/22 13:56:17;;;;;;;4.30;1.45;;;;;;;;;;5035227;28;20049;-66
2023/04/22 13:58:44;;;;;;;1.90;1.20;;;;;;;;;;5034878;28;20046;-66
2023/04/22 14:01:11;;;;;;;1.70;1.42;;;;;;;;;;5034782;28;20364;-66
2023/04/22 14:03:37;;;;;;;1.75;1.30;;;;;;;;;;5034384;28;20052;-66
2023/04/22 14:06:10;;;;;;;2.17;1.02;;;;;;;;;;5033977;28;20493;-66
2023/04/22 14:08:38;;;;;;;2.55;1.40;;;;;;;;;;5034170;28;20049;-66
2023/04/22 14:11:06;;;;;;;2.47;1.30;;;;;;;;;;5033443;28;20049;-66
2023/04/22 14:13:32;;;;;;;1.83;1.40;;;;;;;;;;5033690;28;20422;-66
2023/04/22 14:16:00;;;;;;;2.47;1.40;;;;;;;;;;5033019;28;20444;-65
2023/04/22 14:18:26;;;;;;;2.28;1.50;;;;;;;;;;5033297;28;20407;-66
2023/04/22 14:20:53;;;;;;;1.83;1.55;;;;;;;;;;5032850;28;20045;-65
2023/04/22 14:23:21;;;;;;;1.90;1.42;;;;;;;;;;5032626;28;20053;-66
2023/04/22 14:25:48;;;;;;;4.25;1.58;;;;;;;;;;5033042;28;20046;-66
2023/04/22 14:28:15;;;;;;;2.35;1.65;;;;;;;;;;5033137;28;20053;-66
2023/04/22 14:30:42;;;;;;;3.38;1.65;;;;;;;;;;5033023;28;20056;-66
2023/04/22 14:33:09;;;;;;;2.08;1.52;;;;;;;;;;5032249;28;20068;-66
2023/04/22 14:35:37;;;;;;;2.40;1.60;;;;;;;;;;5032853;28;20057;-66
2023/04/22 14:38:07;;;;;;;1.33;1.23;;;;;;;;;;5032675;28;20045;-66
2023/04/22 14:40:35;;;;;;;3.20;1.40;;;;;;;;;;5033768;28;20426;-66